<?xml version="1.0" encoding="UTF-8" standalone="no" ?>
<gpx xmlns="http://www.topografix.com/GPX/1/1" xmlns:xsi="http://www.w3.org/2001/XMLSchema-instance" xsi:schemaLocation="http://www.topografix.com/GPX/1/1 http://www.topografix.com/GPX/1/1/gpx.xsd" version="1.1" creator="VisuGPX - https://www.visugpx.com">
  <metadata>
    <name>ChailléOrmeaux_Boucles_19km</name>
    <desc><![CDATA[gnerando idor:6553433_6553489_6956451_7846715_7847315_8111388_8144845]]></desc>
  </metadata>
  <trk>
    <name><![CDATA[ChailléOrmeaux_PeuplierBlanc_4,8km-6553489]]></name>
    <extensions>
      <line xmlns="http://www.topografix.com/GPX/gpx_style/0/2">
        <color>0000FF</color>
        <width>4</width>
      </line>
    </extensions>
    <trkseg>
      <trkpt lat="46.5588" lon="-1.34724">
        <ele>29</ele>
        <time>2023-11-05T08:17:11Z</time>
      </trkpt>
      <trkpt lat="46.55753" lon="-1.34484">
        <ele>33</ele>
        <time>2023-11-05T08:21:49Z</time>
      </trkpt>
      <trkpt lat="46.55768" lon="-1.34389">
        <ele>36</ele>
        <time>2023-11-05T08:23:18Z</time>
      </trkpt>
      <trkpt lat="46.55694" lon="-1.3426">
        <ele>36</ele>
        <time>2023-11-05T08:25:52Z</time>
      </trkpt>
      <trkpt lat="46.55585" lon="-1.34235">
        <ele>33</ele>
        <time>2023-11-05T08:28:20Z</time>
      </trkpt>
      <trkpt lat="46.55523" lon="-1.34269">
        <ele>27</ele>
        <time>2023-11-05T08:29:48Z</time>
      </trkpt>
      <trkpt lat="46.55378" lon="-1.34166">
        <ele>29</ele>
        <time>2023-11-05T08:33:24Z</time>
      </trkpt>
      <trkpt lat="46.55411" lon="-1.34076">
        <ele>38</ele>
        <time>2023-11-05T08:34:57Z</time>
      </trkpt>
      <trkpt lat="46.55331" lon="-1.3411">
        <ele>29</ele>
        <time>2023-11-05T08:36:48Z</time>
      </trkpt>
      <trkpt lat="46.55186" lon="-1.34132">
        <ele>26</ele>
        <time>2023-11-05T08:40:03Z</time>
      </trkpt>
      <trkpt lat="46.54903" lon="-1.34144">
        <ele>24</ele>
        <time>2023-11-05T08:46:21Z</time>
      </trkpt>
      <trkpt lat="46.54773" lon="-1.34063">
        <ele>21</ele>
        <time>2023-11-05T08:49:29Z</time>
      </trkpt>
      <trkpt lat="46.54652" lon="-1.33878">
        <ele>21</ele>
        <time>2023-11-05T08:53:24Z</time>
      </trkpt>
      <trkpt lat="46.5464" lon="-1.3366">
        <ele>24</ele>
        <time>2023-11-05T08:56:44Z</time>
      </trkpt>
      <trkpt lat="46.54561" lon="-1.33454">
        <ele>20</ele>
        <time>2023-11-05T09:00:21Z</time>
      </trkpt>
      <trkpt lat="46.5449" lon="-1.33342">
        <ele>16</ele>
        <time>2023-11-05T09:02:41Z</time>
      </trkpt>
      <trkpt lat="46.54605" lon="-1.33372">
        <ele>27</ele>
        <time>2023-11-05T09:05:17Z</time>
      </trkpt>
      <trkpt lat="46.54667" lon="-1.33557">
        <ele>26</ele>
        <time>2023-11-05T09:08:26Z</time>
      </trkpt>
      <trkpt lat="46.54779" lon="-1.33685">
        <ele>34</ele>
        <time>2023-11-05T09:11:36Z</time>
      </trkpt>
      <trkpt lat="46.54959" lon="-1.33694">
        <ele>37</ele>
        <time>2023-11-05T09:15:36Z</time>
      </trkpt>
      <trkpt lat="46.55086" lon="-1.33621">
        <ele>41</ele>
        <time>2023-11-05T09:18:38Z</time>
      </trkpt>
      <trkpt lat="46.55254" lon="-1.33492">
        <ele>48</ele>
        <time>2023-11-05T09:22:52Z</time>
      </trkpt>
      <trkpt lat="46.55313" lon="-1.33385">
        <ele>51</ele>
        <time>2023-11-05T09:24:58Z</time>
      </trkpt>
      <trkpt lat="46.55425" lon="-1.33372">
        <ele>55</ele>
        <time>2023-11-05T09:27:28Z</time>
      </trkpt>
      <trkpt lat="46.55473" lon="-1.33471">
        <ele>54</ele>
        <time>2023-11-05T09:29:19Z</time>
      </trkpt>
      <trkpt lat="46.55579" lon="-1.33745">
        <ele>46</ele>
        <time>2023-11-05T09:34:07Z</time>
      </trkpt>
      <trkpt lat="46.55549" lon="-1.34003">
        <ele>43</ele>
        <time>2023-11-05T09:38:07Z</time>
      </trkpt>
      <trkpt lat="46.55659" lon="-1.34114">
        <ele>44</ele>
        <time>2023-11-05T09:41:06Z</time>
      </trkpt>
      <trkpt lat="46.55724" lon="-1.34273">
        <ele>36</ele>
        <time>2023-11-05T09:43:56Z</time>
      </trkpt>
      <trkpt lat="46.55777" lon="-1.34432">
        <ele>36</ele>
        <time>2023-11-05T09:46:38Z</time>
      </trkpt>
      <trkpt lat="46.5593" lon="-1.3475">
        <ele>29</ele>
        <time>2023-11-05T09:52:34Z</time>
      </trkpt>
    </trkseg>
  </trk>
</gpx>